createdAt,value
2022-08-27T00:01:20.907Z,6.20
2022-08-27T00:03:47.959Z,5.73
2022-08-27T00:06:16.258Z,6.77
2022-08-27T00:08:44.852Z,6.17
2022-08-27T00:11:12.760Z,5.70
2022-08-27T00:13:40.335Z,6.43
2022-08-27T00:16:10.250Z,6.40
2022-08-27T00:18:38.202Z,6.17
2022-08-27T00:21:05.023Z,5.60
2022-08-27T00:23:34.496Z,6.17
2022-08-27T00:26:01.801Z,6.37
2022-08-27T00:28:29.314Z,5.70
2022-08-27T00:30:56.955Z,5.83
2022-08-27T00:33:24.430Z,5.77
2022-08-27T00:35:51.441Z,5.83
2022-08-27T00:38:19.620Z,6.33
2022-08-27T00:40:47.162Z,5.90
2022-08-27T00:43:20.569Z,5.60
2022-08-27T00:45:47.462Z,5.97
2022-08-27T00:48:18.283Z,5.27
2022-08-27T00:50:50.819Z,5.63
2022-08-27T00:53:23.067Z,5.23
2022-08-27T00:55:55.095Z,5.77
2022-08-27T00:58:36.245Z,5.30
2022-08-27T01:01:05.339Z,6.47
2022-08-27T01:03:32.446Z,6.13
2022-08-27T01:06:04.594Z,5.07
2022-08-27T01:08:35.919Z,5.20
2022-08-27T01:11:02.794Z,5.63
2022-08-27T01:13:57.098Z,5.30
2022-08-27T01:16:25.361Z,5.13
2022-08-27T01:18:53.696Z,5.93
2022-08-27T01:21:30.670Z,7.03
2022-08-27T01:24:07.879Z,5.50
2022-08-27T01:26:34.852Z,4.93
2022-08-27T01:29:01.685Z,5.50
2022-08-27T01:31:29.325Z,6.40
2022-08-27T01:34:03.396Z,5.70
2022-08-27T01:36:30.564Z,5.50
2022-08-27T01:38:57.567Z,6.13
2022-08-27T01:41:24.909Z,5.17
2022-08-27T01:43:52.604Z,6.40
2022-08-27T01:46:28.014Z,5.60
2022-08-27T01:48:55.698Z,5.30
2022-08-27T01:51:22.674Z,5.67
2022-08-27T01:53:50.865Z,6.37
2022-08-27T01:56:18.166Z,5.70
2022-08-27T01:58:45.651Z,5.00
2022-08-27T02:01:16.783Z,5.50
2022-08-27T02:03:44.613Z,5.57
2022-08-27T02:06:12.138Z,6.53
2022-08-27T02:08:39.617Z,6.17
2022-08-27T02:11:08.294Z,6.30
2022-08-27T02:13:35.686Z,6.37
2022-08-27T02:16:02.933Z,6.20
2022-08-27T02:18:29.740Z,6.37
2022-08-27T02:20:56.500Z,5.83
2022-08-27T02:23:23.332Z,6.97
2022-08-27T02:25:51.064Z,6.43
2022-08-27T02:28:17.865Z,6.97
2022-08-27T02:30:44.731Z,6.40
2022-08-27T02:33:11.814Z,6.33
2022-08-27T02:35:40.414Z,6.53
2022-08-27T02:38:08.245Z,6.67
2022-08-27T02:40:35.936Z,6.60
2022-08-27T02:43:03.002Z,7.40
2022-08-27T02:45:29.986Z,7.13
2022-08-27T02:47:56.784Z,7.07
2022-08-27T02:50:27.570Z,6.93
2022-08-27T02:52:54.782Z,7.23
2022-08-27T02:55:22.466Z,6.87
2022-08-27T02:57:49.546Z,7.70
2022-08-27T03:00:18.928Z,7.70
2022-08-27T03:02:45.808Z,6.53
2022-08-27T03:05:14.003Z,6.57
2022-08-27T03:07:41.455Z,7.43
2022-08-27T03:10:10.215Z,6.40
2022-08-27T03:12:37.394Z,6.90
2022-08-27T03:15:10.064Z,6.97
2022-08-27T03:17:55.963Z,7.03
2022-08-27T03:20:23.273Z,7.20
2022-08-27T03:22:50.129Z,6.37
2022-08-27T03:25:17.465Z,5.87
2022-08-27T03:27:44.477Z,7.20
2022-08-27T03:30:16.046Z,6.87
2022-08-27T03:32:43.369Z,6.77
2022-08-27T03:35:11.594Z,6.57
2022-08-27T03:37:38.456Z,6.70
2022-08-27T03:40:07.438Z,6.80
2022-08-27T03:42:34.811Z,7.00
2022-08-27T03:45:01.942Z,6.97
2022-08-27T03:47:28.634Z,6.70
2022-08-27T03:49:55.680Z,7.23
2022-08-27T03:52:22.450Z,6.80
2022-08-27T03:54:49.146Z,6.73
2022-08-27T03:57:16.022Z,6.40
2022-08-27T03:59:42.836Z,7.23
2022-08-27T04:02:09.694Z,6.33
2022-08-27T04:04:36.792Z,5.70
2022-08-27T04:07:04.124Z,6.30
2022-08-27T04:09:30.821Z,6.23
2022-08-27T04:11:57.502Z,5.93
2022-08-27T04:14:26.461Z,6.13
2022-08-27T04:16:54.952Z,5.83
2022-08-27T04:19:26.946Z,6.33
2022-08-27T04:21:54.280Z,6.13
2022-08-27T04:24:20.979Z,5.80
2022-08-27T04:26:47.782Z,5.50
2022-08-27T04:29:14.697Z,5.70
2022-08-27T04:31:41.634Z,5.97
2022-08-27T04:34:08.435Z,5.30
2022-08-27T04:36:35.185Z,5.83
2022-08-27T04:39:01.940Z,6.00
2022-08-27T04:41:33.170Z,6.00
2022-08-27T04:44:05.555Z,6.17
2022-08-27T04:46:38.742Z,5.57
2022-08-27T04:49:11.794Z,6.23
2022-08-27T04:51:40.171Z,5.73
2022-08-27T04:54:07.885Z,7.40
2022-08-27T04:56:36.365Z,5.20
2022-08-27T04:59:04.948Z,5.87
2022-08-27T05:01:32.137Z,5.80
2022-08-27T05:03:59.012Z,5.33
2022-08-27T05:06:26.824Z,5.97
2022-08-27T05:08:54.340Z,5.50
2022-08-27T05:11:23.560Z,5.70
2022-08-27T05:13:50.770Z,5.47
2022-08-27T05:16:20.094Z,6.00
2022-08-27T05:18:48.878Z,5.63
2022-08-27T05:21:31.816Z,5.73
2022-08-27T05:24:01.218Z,5.17
2022-08-27T05:26:29.386Z,4.93
2022-08-27T05:29:00.040Z,5.67
2022-08-27T05:31:27.726Z,5.47
2022-08-27T05:33:57.008Z,5.57
2022-08-27T05:36:31.032Z,5.60
2022-08-27T05:38:59.548Z,5.67
2022-08-27T05:41:30.273Z,5.60
2022-08-27T05:44:18.382Z,5.17
2022-08-27T05:46:51.735Z,5.60
2022-08-27T05:49:18.458Z,5.57
2022-08-27T05:51:45.288Z,6.17
2022-08-27T05:54:18.940Z,5.50
2022-08-27T05:56:47.080Z,5.57
2022-08-27T05:59:34.758Z,5.67
2022-08-27T06:02:02.805Z,5.70
2022-08-27T06:04:29.796Z,5.73
2022-08-27T06:06:56.475Z,5.93
2022-08-27T06:09:25.680Z,5.87
2022-08-27T06:11:57.321Z,5.60
2022-08-27T06:14:24.577Z,6.40
2022-08-27T06:16:51.493Z,6.27
2022-08-27T06:19:18.469Z,5.90
2022-08-27T06:21:45.742Z,5.33
2022-08-27T06:24:13.491Z,6.10
2022-08-27T06:26:42.287Z,5.40
2022-08-27T06:29:09.864Z,5.23
2022-08-27T06:31:40.362Z,5.73
2022-08-27T06:34:08.806Z,5.53
2022-08-27T06:36:41.752Z,5.63
2022-08-27T06:39:13.240Z,5.83
2022-08-27T06:41:41.755Z,5.10
2022-08-27T06:44:09.039Z,5.10
2022-08-27T06:46:37.475Z,5.20
2022-08-27T06:49:04.639Z,5.67
2022-08-27T06:51:34.191Z,5.17
2022-08-27T06:54:04.308Z,5.80
2022-08-27T06:56:31.738Z,5.27
2022-08-27T06:59:03.205Z,5.47
2022-08-27T07:01:35.846Z,5.20
2022-08-27T07:04:06.376Z,5.97
2022-08-27T07:06:34.701Z,5.10
2022-08-27T07:09:01.744Z,5.20
2022-08-27T07:11:31.896Z,4.80
2022-08-27T07:13:59.237Z,5.50
2022-08-27T07:16:28.458Z,5.30
2022-08-27T07:18:57.969Z,5.53
2022-08-27T07:21:30.577Z,4.73
2022-08-27T07:23:59.624Z,4.97
2022-08-27T07:26:28.324Z,5.33
2022-08-27T07:28:55.011Z,5.50
2022-08-27T07:31:23.097Z,5.00
2022-08-27T07:33:51.318Z,5.30
2022-08-27T07:36:20.690Z,5.73
2022-08-27T07:38:53.528Z,4.33
2022-08-27T07:41:31.214Z,4.40
2022-08-27T07:44:20.574Z,4.50
2022-08-27T07:46:48.993Z,3.97
2022-08-27T07:49:17.579Z,3.80
2022-08-27T07:51:45.330Z,4.20
2022-08-27T07:54:12.396Z,3.50
2022-08-27T07:56:39.274Z,3.20
2022-08-27T07:59:05.988Z,3.00
2022-08-27T08:01:32.933Z,2.70
2022-08-27T08:03:59.700Z,2.83
2022-08-27T08:06:26.431Z,2.83
2022-08-27T08:08:53.173Z,2.97
2022-08-27T08:11:20.422Z,3.07
2022-08-27T08:13:47.876Z,3.30
2022-08-27T08:16:15.339Z,2.80
2022-08-27T08:18:42.101Z,3.10
2022-08-27T08:21:12.275Z,3.40
2022-08-27T08:23:39.115Z,2.47
2022-08-27T08:26:06.901Z,2.77
2022-08-27T08:28:34.035Z,2.70
2022-08-27T08:31:01.432Z,3.20
2022-08-27T08:33:31.415Z,2.97
2022-08-27T08:36:13.387Z,3.07
2022-08-27T08:38:41.084Z,2.90
2022-08-27T08:41:26.290Z,2.90
2022-08-27T08:43:54.209Z,3.17
2022-08-27T08:46:37.609Z,3.80
2022-08-27T08:49:26.190Z,3.13
2022-08-27T08:51:56.880Z,3.13
2022-08-27T08:54:24.551Z,2.80
2022-08-27T08:57:22.746Z,3.23
2022-08-27T09:00:01.275Z,2.50
2022-08-27T09:02:28.088Z,2.97
2022-08-27T09:04:57.898Z,2.90
2022-08-27T09:07:38.606Z,2.93
2022-08-27T09:10:23.839Z,2.63
2022-08-27T09:12:52.829Z,2.40
2022-08-27T09:15:23.427Z,3.13
2022-08-27T09:17:50.717Z,2.83
2022-08-27T09:20:21.720Z,2.60
2022-08-27T09:22:58.799Z,2.57
2022-08-27T09:25:36.195Z,3.07
2022-08-27T09:28:32.174Z,2.70
2022-08-27T09:31:08.405Z,2.50
2022-08-27T09:33:44.380Z,2.60
2022-08-27T09:36:23.891Z,2.90
2022-08-27T09:38:58.626Z,2.80
2022-08-27T09:41:29.255Z,2.83
2022-08-27T09:44:10.026Z,2.33
2022-08-27T09:46:36.861Z,2.63
2022-08-27T09:49:11.781Z,2.83
2022-08-27T09:51:42.280Z,3.00
2022-08-27T09:54:10.181Z,3.40
2022-08-27T09:56:47.174Z,3.10
2022-08-27T09:59:27.147Z,2.80
2022-08-27T10:02:04.651Z,2.90
2022-08-27T10:04:50.461Z,2.60
2022-08-27T10:07:39.346Z,3.67
2022-08-27T10:10:21.488Z,3.00
2022-08-27T10:13:09.090Z,2.83
2022-08-27T10:16:06.681Z,2.57
2022-08-27T10:18:46.299Z,3.50
2022-08-27T10:21:25.507Z,3.60
2022-08-27T10:24:18.785Z,3.27
2022-08-27T10:27:05.947Z,3.00
2022-08-27T10:29:38.360Z,3.40
2022-08-27T10:32:40.572Z,3.17
2022-08-27T10:35:13.685Z,3.10
2022-08-27T10:37:45.941Z,3.17
2022-08-27T10:40:20.827Z,3.07
2022-08-27T10:42:58.554Z,3.50
2022-08-27T10:45:53.274Z,3.63
2022-08-27T10:48:27.413Z,3.70
2022-08-27T10:51:14.190Z,3.63
2022-08-27T10:54:04.670Z,4.10
2022-08-27T10:56:34.201Z,3.80
2022-08-27T10:59:25.505Z,5.07
2022-08-27T11:02:30.789Z,4.20
2022-08-27T11:05:03.302Z,3.70
2022-08-27T11:07:36.051Z,4.97
2022-08-27T11:10:20.869Z,3.80
2022-08-27T11:12:51.845Z,3.33
2022-08-27T11:15:21.550Z,4.20
2022-08-27T11:18:01.451Z,3.00
2022-08-27T11:20:34.733Z,2.83
2022-08-27T11:23:13.936Z,2.67
2022-08-27T11:25:59.091Z,3.83
2022-08-27T11:28:38.333Z,3.17
2022-08-27T11:31:22.718Z,2.60
2022-08-27T11:33:52.381Z,2.77
2022-08-27T11:37:04.146Z,3.07
2022-08-27T11:39:52.177Z,2.77
2022-08-27T11:42:36.218Z,2.57
2022-08-27T11:45:15.761Z,2.90
2022-08-27T11:47:52.848Z,3.00
2022-08-27T11:50:21.595Z,2.83
2022-08-27T11:53:05.829Z,3.20
2022-08-27T11:55:38.971Z,3.47
2022-08-27T11:58:17.895Z,2.90
2022-08-27T12:00:46.108Z,3.20
2022-08-27T12:03:18.884Z,2.83
2022-08-27T12:05:54.416Z,2.90
2022-08-27T12:08:21.667Z,3.00
2022-08-27T12:11:19.929Z,2.93
2022-08-27T12:14:17.476Z,2.57
2022-08-27T12:16:46.940Z,2.80
2022-08-27T12:19:28.484Z,3.20
2022-08-27T12:22:21.384Z,3.07
2022-08-27T12:24:49.953Z,8.33
2022-08-27T12:27:19.602Z,5.63
2022-08-27T12:29:59.790Z,6.13
2022-08-27T12:32:31.559Z,3.63
2022-08-27T12:35:23.178Z,3.03
2022-08-27T12:37:57.844Z,3.63
2022-08-27T12:40:28.359Z,3.60
2022-08-27T12:43:19.099Z,3.10
2022-08-27T12:45:55.785Z,3.63
2022-08-27T12:48:29.453Z,3.57
2022-08-27T12:51:02.641Z,3.30
2022-08-27T12:53:48.078Z,3.13
2022-08-27T12:56:35.618Z,3.00
2022-08-27T12:59:15.920Z,2.70
2022-08-27T13:02:07.855Z,3.00
2022-08-27T13:04:39.499Z,2.80
2022-08-27T13:07:06.279Z,2.83
2022-08-27T13:09:37.997Z,3.50
2022-08-27T13:12:15.081Z,2.77
2022-08-27T13:14:41.916Z,3.30
2022-08-27T13:17:11.863Z,3.10
2022-08-27T13:19:56.024Z,2.80
2022-08-27T13:22:30.877Z,3.00
2022-08-27T13:25:02.731Z,3.17
2022-08-27T13:27:33.840Z,2.93
2022-08-27T13:30:08.420Z,3.47
2022-08-27T13:32:37.294Z,3.83
2022-08-27T13:35:06.470Z,3.03
2022-08-27T13:37:41.346Z,3.37
2022-08-27T13:40:08.823Z,2.90
2022-08-27T13:42:41.420Z,3.13
2022-08-27T13:45:08.959Z,3.10
2022-08-27T13:47:48.755Z,3.00
2022-08-27T13:50:23.331Z,2.70
2022-08-27T13:53:11.976Z,2.70
2022-08-27T13:55:48.677Z,2.73
2022-08-27T13:58:39.411Z,2.70
2022-08-27T14:01:10.601Z,2.90
2022-08-27T14:03:48.199Z,3.20
2022-08-27T14:06:45.156Z,2.60
2022-08-27T14:09:19.329Z,3.17
2022-08-27T14:11:47.145Z,2.60
2022-08-27T14:14:16.640Z,3.00
2022-08-27T14:16:43.651Z,2.90
2022-08-27T14:19:26.113Z,2.50
2022-08-27T14:21:53.185Z,2.53
2022-08-27T14:24:20.391Z,2.63
2022-08-27T14:26:51.367Z,3.23
2022-08-27T14:29:18.612Z,2.90
2022-08-27T14:31:45.849Z,2.83
2022-08-27T14:34:13.740Z,2.80
2022-08-27T14:36:42.166Z,3.00
2022-08-27T14:39:10.424Z,3.50
2022-08-27T14:41:37.820Z,2.70
2022-08-27T14:44:04.800Z,3.10
2022-08-27T14:46:36.106Z,3.00
2022-08-27T14:49:13.567Z,3.07
2022-08-27T14:51:43.415Z,3.30
2022-08-27T14:54:10.391Z,3.17
2022-08-27T14:56:37.045Z,3.20
2022-08-27T14:59:03.832Z,2.97
2022-08-27T15:01:30.603Z,3.20
2022-08-27T15:03:58.273Z,2.80
2022-08-27T15:06:25.234Z,3.00
2022-08-27T15:08:53.535Z,3.40
2022-08-27T15:11:27.367Z,3.20
2022-08-27T15:13:56.048Z,2.90
2022-08-27T15:16:34.898Z,2.90
2022-08-27T15:19:02.460Z,3.07
2022-08-27T15:21:31.004Z,2.90
2022-08-27T15:24:04.568Z,2.50
2022-08-27T15:26:31.921Z,2.80
2022-08-27T15:29:01.759Z,2.97
2022-08-27T15:31:32.611Z,3.17
2022-08-27T15:33:59.347Z,2.80
2022-08-27T15:36:26.097Z,2.73
2022-08-27T15:38:54.425Z,3.10
2022-08-27T15:41:21.415Z,3.20
2022-08-27T15:43:48.284Z,2.67
2022-08-27T15:46:15.310Z,2.57
2022-08-27T15:48:42.058Z,2.67
2022-08-27T15:51:11.336Z,2.70
2022-08-27T15:53:40.306Z,2.73
2022-08-27T15:56:08.142Z,3.10
2022-08-27T15:58:36.939Z,2.90
2022-08-27T16:01:08.992Z,3.20
2022-08-27T16:03:36.184Z,2.70
2022-08-27T16:06:05.259Z,2.80
2022-08-27T16:08:36.589Z,2.90
2022-08-27T16:11:05.890Z,3.03
2022-08-27T16:13:32.683Z,3.43
2022-08-27T16:16:01.091Z,2.67
2022-08-27T16:18:30.294Z,3.00
2022-08-27T16:20:59.707Z,2.50
2022-08-27T16:23:27.479Z,2.50
2022-08-27T16:25:55.874Z,2.50
2022-08-27T16:28:23.657Z,2.50
2022-08-27T16:30:52.014Z,2.67
2022-08-27T16:33:19.447Z,2.50
2022-08-27T16:35:46.670Z,2.90
2022-08-27T16:38:13.649Z,2.37
2022-08-27T16:40:43.946Z,2.67
2022-08-27T16:43:15.048Z,2.57
2022-08-27T16:45:42.033Z,2.30
2022-08-27T16:48:27.437Z,2.23
2022-08-27T16:50:54.223Z,2.17
2022-08-27T16:53:24.776Z,2.27
2022-08-27T16:55:52.057Z,2.00
2022-08-27T16:58:23.399Z,2.30
2022-08-27T17:00:53.095Z,2.17
2022-08-27T17:03:21.813Z,2.13
2022-08-27T17:05:49.533Z,2.20
2022-08-27T17:08:18.681Z,1.83
2022-08-27T17:10:49.226Z,1.63
2022-08-27T17:13:28.134Z,1.90
2022-08-27T17:15:56.088Z,1.53
2022-08-27T17:21:14.430Z,1.60
2022-08-27T17:23:44.352Z,1.67
2022-08-27T17:26:13.337Z,1.80
2022-08-27T17:28:41.441Z,1.80
2022-08-27T17:31:11.938Z,1.70
2022-08-27T17:33:41.662Z,2.00
2022-08-27T17:36:13.656Z,1.90
2022-08-27T17:38:41.467Z,1.70
2022-08-27T17:41:23.143Z,1.93
2022-08-27T17:43:49.891Z,1.93
2022-08-27T17:46:16.710Z,2.20
2022-08-27T17:48:43.865Z,2.20
2022-08-27T17:51:12.341Z,1.87
2022-08-27T17:53:47.000Z,2.20
2022-08-27T17:56:15.888Z,2.40
2022-08-27T17:58:42.642Z,2.10
2022-08-27T18:01:11.405Z,2.30
2022-08-27T18:03:38.353Z,2.53
2022-08-27T18:06:12.396Z,2.20
2022-08-27T18:08:39.075Z,2.30
2022-08-27T18:11:06.278Z,2.53
2022-08-27T18:13:37.100Z,2.23
2022-08-27T18:16:07.443Z,2.87
2022-08-27T18:18:35.070Z,2.50
2022-08-27T18:21:01.942Z,2.30
2022-08-27T18:23:28.688Z,2.73
2022-08-27T18:25:56.088Z,2.60
2022-08-27T18:28:23.666Z,2.33
2022-08-27T18:30:50.854Z,2.37
2022-08-27T18:33:17.741Z,2.73
2022-08-27T18:35:44.491Z,2.63
2022-08-27T18:38:11.556Z,2.83
2022-08-27T18:40:42.344Z,3.40
2022-08-27T18:43:09.332Z,2.83
2022-08-27T18:45:37.629Z,2.70
2022-08-27T18:48:14.893Z,2.63
2022-08-27T18:50:50.756Z,2.70
2022-08-27T18:53:20.334Z,2.97
2022-08-27T18:55:48.815Z,2.50
2022-08-27T18:58:16.215Z,2.20
2022-08-27T19:00:48.738Z,2.20
2022-08-27T19:03:31.502Z,2.07
2022-08-27T19:05:58.217Z,2.10
2022-08-27T19:08:28.129Z,2.00
2022-08-27T19:10:55.630Z,1.90
2022-08-27T19:13:22.766Z,2.33
2022-08-27T19:15:54.729Z,2.30
2022-08-27T19:18:24.498Z,2.13
2022-08-27T19:20:52.745Z,2.40
2022-08-27T19:23:22.168Z,2.00
2022-08-27T19:25:50.336Z,2.20
2022-08-27T19:28:27.026Z,2.40
2022-08-27T19:30:54.292Z,1.70
2022-08-27T19:33:22.424Z,2.20
2022-08-27T19:35:49.786Z,2.20
2022-08-27T19:38:16.705Z,1.80
2022-08-27T19:40:43.570Z,1.80
2022-08-27T19:43:10.362Z,1.60
2022-08-27T19:45:40.487Z,2.10
2022-08-27T19:48:08.180Z,2.00
2022-08-27T19:50:35.333Z,1.60
2022-08-27T19:53:02.124Z,2.17
2022-08-27T19:55:28.903Z,2.27
2022-08-27T19:57:55.835Z,2.20
2022-08-27T20:00:24.942Z,2.20
2022-08-27T20:02:55.063Z,2.20
2022-08-27T20:05:22.779Z,2.40
2022-08-27T20:07:52.116Z,2.23
2022-08-27T20:10:25.851Z,2.20
2022-08-27T20:12:58.699Z,2.20
2022-08-27T20:15:25.947Z,2.17
2022-08-27T20:17:53.307Z,2.10
2022-08-27T20:20:23.153Z,2.47
2022-08-27T20:22:50.030Z,2.10
2022-08-27T20:25:16.817Z,2.43
2022-08-27T20:27:43.549Z,2.07
2022-08-27T20:30:13.202Z,1.93
2022-08-27T20:32:40.349Z,2.03
2022-08-27T20:35:08.172Z,1.80
2022-08-27T20:37:40.075Z,1.83
2022-08-27T20:40:12.210Z,1.70
2022-08-27T20:42:39.473Z,2.00
2022-08-27T20:45:11.720Z,2.00
2022-08-27T20:47:39.603Z,2.33
2022-08-27T20:50:07.408Z,1.60
2022-08-27T20:52:35.547Z,2.00
2022-08-27T20:55:02.762Z,2.20
2022-08-27T20:57:29.489Z,2.50
2022-08-27T21:00:14.645Z,1.90
2022-08-27T21:02:41.409Z,1.93
2022-08-27T21:05:12.147Z,2.03
2022-08-27T21:07:39.555Z,2.20
2022-08-27T21:10:07.808Z,2.27
2022-08-27T21:12:34.975Z,2.10
2022-08-27T21:15:03.021Z,2.17
2022-08-27T21:17:30.058Z,2.23
2022-08-27T21:19:57.210Z,2.00
2022-08-27T21:22:24.961Z,2.43
2022-08-27T21:24:52.751Z,1.80
2022-08-27T21:27:23.581Z,2.20
2022-08-27T21:29:50.337Z,2.33
2022-08-27T21:32:17.802Z,1.80
2022-08-27T21:34:45.242Z,3.00
2022-08-27T21:37:13.733Z,2.00
2022-08-27T21:39:41.924Z,2.27
2022-08-27T21:42:09.359Z,1.93
2022-08-27T21:44:36.704Z,2.37
2022-08-27T21:47:03.991Z,2.10
2022-08-27T21:49:34.230Z,2.30
2022-08-27T21:52:06.057Z,2.30
2022-08-27T21:54:36.175Z,1.93
2022-08-27T21:57:04.344Z,2.80
2022-08-27T21:59:39.666Z,2.40
2022-08-27T22:02:28.928Z,2.00
2022-08-27T22:04:54.294Z,2.17
2022-08-27T22:07:22.189Z,2.67
2022-08-27T22:09:48.902Z,2.77
2022-08-27T22:12:15.705Z,2.07
2022-08-27T22:14:42.462Z,2.30
2022-08-27T22:17:09.253Z,3.07
2022-08-27T22:19:35.997Z,2.90
2022-08-27T22:22:02.796Z,2.60
2022-08-27T22:24:29.476Z,2.20
2022-08-27T22:26:56.217Z,2.70
2022-08-27T22:29:24.470Z,2.20
2022-08-27T22:31:51.383Z,2.40
2022-08-27T22:34:18.264Z,2.50
2022-08-27T22:36:44.953Z,2.90
2022-08-27T22:39:11.632Z,5.30
2022-08-27T22:41:38.311Z,3.00
2022-08-27T22:44:08.618Z,3.67
2022-08-27T22:46:35.556Z,3.20
2022-08-27T22:49:02.433Z,2.50
2022-08-27T22:51:29.153Z,2.80
2022-08-27T22:53:55.897Z,2.30
2022-08-27T22:56:22.627Z,2.50
2022-08-27T22:58:49.371Z,2.50
2022-08-27T23:01:20.540Z,2.30
2022-08-27T23:03:47.823Z,2.10
2022-08-27T23:06:14.668Z,2.60
2022-08-27T23:08:41.370Z,2.10
2022-08-27T23:11:08.433Z,2.87
2022-08-27T23:13:35.287Z,2.67
2022-08-27T23:16:03.079Z,2.83
2022-08-27T23:18:30.405Z,2.50
2022-08-27T23:20:57.161Z,2.43
2022-08-27T23:23:24.433Z,2.07
2022-08-27T23:26:15.158Z,2.27
2022-08-27T23:28:41.864Z,2.70
2022-08-27T23:31:08.856Z,2.47
2022-08-27T23:33:35.800Z,2.33
2022-08-27T23:36:02.788Z,2.50
2022-08-27T23:38:29.462Z,2.43
2022-08-27T23:40:56.673Z,2.30
2022-08-27T23:43:23.760Z,2.47
2022-08-27T23:45:52.047Z,2.50
2022-08-27T23:48:19.519Z,2.83
2022-08-27T23:50:46.234Z,2.17
2022-08-27T23:53:14.321Z,2.20
2022-08-27T23:55:41.186Z,2.30
2022-08-27T23:58:09.675Z,2.20
